Date,TemperatureHighF,TemperatureAvgF,TemperatureLowF,DewpointHighF,DewpointAvgF,DewpointLowF,HumidityHigh,HumidityAvg,HumidityLow,PressureMaxIn,PressureMinIn,WindSpeedMaxMPH,WindSpeedAvgMPH,GustSpeedMaxMPH,PrecipitationSumIn
2013-2-1,65,56,51,45,43,41,73,61,48,30.21,30.12,9,1,0,0.00
2013-2-2,60,50,46,49,45,42,90,83,66,30.30,30.21,6,1,0,0.00
2013-2-3,59,50,45,47,44,39,88,78,65,30.25,30.14,17,3,0,0.00
2013-2-4,54,46,42,49,44,41,95,92,82,30.18,30.07,5,0,0,0.01
2013-2-5,56,49,43,46,42,38,94,79,65,30.16,30.07,22,6,0,0.00
2013-2-6,59,48,43,45,40,37,85,73,53,30.19,30.13,17,4,0,0.00
2013-2-7,54,47,41,46,41,36,94,81,52,30.16,30.00,19,3,0,0.33
2013-2-8,56,46,38,41,36,25,93,72,39,30.02,29.94,17,2,0,0.07
2013-2-9,58,50,44,36,30,24,59,48,35,30.09,30.00,7,1,0,0.00
2013-2-10,60,48,41,43,35,24,85,62,41,30.12,30.03,7,1,0,0.00
2013-2-11,63,54,45,44,32,24,81,45,33,30.22,30.08,8,1,0,0.00
2013-2-12,62,50,41,45,40,36,93,70,43,30.37,30.22,5,1,0,0.00
2013-2-13,65,50,42,48,42,37,94,74,50,30.34,30.21,4,0,0,0.00
2013-2-14,68,57,45,46,43,40,86,60,41,30.25,30.16,8,1,0,0.00
2013-2-15,72,62,53,45,39,35,65,45,35,30.27,30.20,13,2,0,0.00
2013-2-16,68,59,50,45,42,38,73,54,42,30.23,30.04,10,1,0,0.00
2013-2-17,63,52,44,47,43,40,89,73,52,30.05,29.97,7,1,0,0.00
2013-2-18,52,46,41,41,39,36,91,77,60,30.03,29.96,15,3,0,0.00
2013-2-19,46,43,39,42,37,31,89,79,65,29.97,29.75,22,6,0,0.42
2013-2-20,58,48,39,40,34,29,74,60,43,30.07,29.86,20,6,0,0.00
2013-2-21,60,50,43,37,34,29,76,55,35,30.17,30.05,23,5,0,0.00
2013-2-22,64,52,43,46,39,35,79,63,34,30.25,30.17,19,4,0,0.00
2013-2-23,55,49,46,45,36,26,88,63,42,30.25,30.16,20,8,0,0.00
2013-2-24,62,53,45,39,29,21,72,41,28,30.25,30.17,6,2,0,0.00
2013-2-25,65,52,43,44,39,32,87,64,43,30.26,30.17,10,2,0,0.00
2013-2-26,68,55,44,41,33,25,68,46,26,30.22,30.14,6,1,0,0.00
2013-2-27,70,54,46,48,40,34,77,59,39,30.36,30.20,18,3,0,0.00
2013-2-28,69,56,48,52,48,44,89,77,55,30.44,30.36,10,1,0,0.00